sensor_id;sensor_type;location;lat;lon;timestamp;P1;durP1;ratioP1;P2;durP2;ratioP2
22449;SDS011;11392;57.390;-2.468;2023-02-15T00:02:01;22.85;;;10.95;;
22449;SDS011;11392;57.390;-2.468;2023-02-15T00:04:28;18.10;;;10.95;;
22449;SDS011;11392;57.390;-2.468;2023-02-15T00:07:16;17.80;;;9.55;;
22449;SDS011;11392;57.390;-2.468;2023-02-15T00:09:45;18.13;;;10.10;;
22449;SDS011;11392;57.390;-2.468;2023-02-15T00:12:13;19.92;;;9.40;;
22449;SDS011;11392;57.390;-2.468;2023-02-15T00:20:16;11.98;;;8.00;;
22449;SDS011;11392;57.390;-2.468;2023-02-15T00:22:44;15.23;;;8.80;;
22449;SDS011;11392;57.390;-2.468;2023-02-15T00:25:11;12.32;;;7.40;;
22449;SDS011;11392;57.390;-2.468;2023-02-15T00:27:38;11.18;;;7.75;;
22449;SDS011;11392;57.390;-2.468;2023-02-15T00:30:05;10.68;;;7.10;;
22449;SDS011;11392;57.390;-2.468;2023-02-15T00:32:33;12.60;;;6.85;;
22449;SDS011;11392;57.390;-2.468;2023-02-15T00:35:00;9.52;;;6.22;;
22449;SDS011;11392;57.390;-2.468;2023-02-15T00:37:27;10.23;;;6.18;;
22449;SDS011;11392;57.390;-2.468;2023-02-15T00:39:54;9.27;;;6.07;;
22449;SDS011;11392;57.390;-2.468;2023-02-15T00:42:20;11.73;;;5.28;;
22449;SDS011;11392;57.390;-2.468;2023-02-15T00:44:47;11.15;;;6.00;;
22449;SDS011;11392;57.390;-2.468;2023-02-15T00:47:14;10.68;;;6.63;;
22449;SDS011;11392;57.390;-2.468;2023-02-15T00:49:41;12.48;;;6.18;;
22449;SDS011;11392;57.390;-2.468;2023-02-15T00:52:08;12.15;;;7.28;;
22449;SDS011;11392;57.390;-2.468;2023-02-15T00:54:35;10.95;;;7.13;;
22449;SDS011;11392;57.390;-2.468;2023-02-15T00:57:04;10.25;;;7.13;;
22449;SDS011;11392;57.390;-2.468;2023-02-15T00:59:31;12.20;;;7.57;;
22449;SDS011;11392;57.390;-2.468;2023-02-15T01:01:58;11.95;;;7.22;;
22449;SDS011;11392;57.390;-2.468;2023-02-15T01:04:25;13.35;;;8.60;;
22449;SDS011;11392;57.390;-2.468;2023-02-15T01:06:53;17.50;;;8.88;;
22449;SDS011;11392;57.390;-2.468;2023-02-15T01:09:20;14.55;;;8.95;;
22449;SDS011;11392;57.390;-2.468;2023-02-15T01:11:47;12.95;;;8.27;;
22449;SDS011;11392;57.390;-2.468;2023-02-15T01:14:14;13.73;;;8.27;;
22449;SDS011;11392;57.390;-2.468;2023-02-15T01:16:41;16.67;;;9.70;;
22449;SDS011;11392;57.390;-2.468;2023-02-15T01:19:07;14.93;;;8.30;;
22449;SDS011;11392;57.390;-2.468;2023-02-15T01:21:34;12.40;;;8.45;;
22449;SDS011;11392;57.390;-2.468;2023-02-15T01:24:01;18.67;;;9.75;;
22449;SDS011;11392;57.390;-2.468;2023-02-15T01:26:29;15.85;;;8.98;;
22449;SDS011;11392;57.390;-2.468;2023-02-15T01:28:56;16.83;;;9.57;;
22449;SDS011;11392;57.390;-2.468;2023-02-15T01:31:22;14.40;;;10.07;;
22449;SDS011;11392;57.390;-2.468;2023-02-15T01:33:50;14.65;;;9.48;;
22449;SDS011;11392;57.390;-2.468;2023-02-15T01:36:16;17.85;;;11.40;;
22449;SDS011;11392;57.390;-2.468;2023-02-15T01:38:44;17.95;;;10.60;;
22449;SDS011;11392;57.390;-2.468;2023-02-15T01:41:11;15.80;;;11.07;;
22449;SDS011;11392;57.390;-2.468;2023-02-15T01:46:23;20.60;;;11.48;;
22449;SDS011;11392;57.390;-2.468;2023-02-15T01:49:01;19.17;;;12.13;;
22449;SDS011;11392;57.390;-2.468;2023-02-15T01:51:37;19.23;;;13.02;;
22449;SDS011;11392;57.390;-2.468;2023-02-15T01:54:11;19.17;;;12.30;;
22449;SDS011;11392;57.390;-2.468;2023-02-15T01:56:45;17.58;;;11.77;;
22449;SDS011;11392;57.390;-2.468;2023-02-15T01:59:16;19.52;;;13.02;;
22449;SDS011;11392;57.390;-2.468;2023-02-15T02:01:51;19.40;;;11.65;;
22449;SDS011;11392;57.390;-2.468;2023-02-15T02:04:25;19.70;;;12.13;;
22449;SDS011;11392;57.390;-2.468;2023-02-15T02:07:07;22.10;;;12.30;;
22449;SDS011;11392;57.390;-2.468;2023-02-15T02:09:36;25.67;;;14.13;;
22449;SDS011;11392;57.390;-2.468;2023-02-15T02:12:03;25.08;;;12.90;;
22449;SDS011;11392;57.390;-2.468;2023-02-15T02:14:30;19.67;;;12.32;;
22449;SDS011;11392;57.390;-2.468;2023-02-15T02:31:07;22.20;;;12.38;;
22449;SDS011;11392;57.390;-2.468;2023-02-15T02:39:30;18.88;;;11.05;;
22449;SDS011;11392;57.390;-2.468;2023-02-15T02:42:18;19.85;;;11.73;;
22449;SDS011;11392;57.390;-2.468;2023-02-15T02:47:43;20.80;;;11.30;;
22449;SDS011;11392;57.390;-2.468;2023-02-15T02:50:16;17.20;;;11.45;;
22449;SDS011;11392;57.390;-2.468;2023-02-15T02:52:50;20.33;;;10.68;;
22449;SDS011;11392;57.390;-2.468;2023-02-15T02:55:23;20.45;;;10.85;;
22449;SDS011;11392;57.390;-2.468;2023-02-15T03:01:02;16.98;;;9.70;;
22449;SDS011;11392;57.390;-2.468;2023-02-15T03:03:42;16.23;;;9.85;;
22449;SDS011;11392;57.390;-2.468;2023-02-15T03:06:17;19.63;;;10.65;;
22449;SDS011;11392;57.390;-2.468;2023-02-15T03:08:48;17.67;;;9.77;;
22449;SDS011;11392;57.390;-2.468;2023-02-15T03:11:21;16.52;;;10.15;;
22449;SDS011;11392;57.390;-2.468;2023-02-15T03:13:48;12.40;;;8.07;;
22449;SDS011;11392;57.390;-2.468;2023-02-15T03:16:16;14.38;;;8.90;;
22449;SDS011;11392;57.390;-2.468;2023-02-15T03:19:09;15.27;;;10.50;;
22449;SDS011;11392;57.390;-2.468;2023-02-15T03:21:50;15.80;;;9.18;;
22449;SDS011;11392;57.390;-2.468;2023-02-15T03:24:37;13.60;;;8.85;;
22449;SDS011;11392;57.390;-2.468;2023-02-15T03:27:12;17.48;;;9.80;;
22449;SDS011;11392;57.390;-2.468;2023-02-15T03:29:46;13.10;;;8.60;;
22449;SDS011;11392;57.390;-2.468;2023-02-15T03:32:18;16.17;;;9.80;;
22449;SDS011;11392;57.390;-2.468;2023-02-15T03:34:46;15.60;;;9.80;;
22449;SDS011;11392;57.390;-2.468;2023-02-15T03:37:14;21.08;;;10.90;;
22449;SDS011;11392;57.390;-2.468;2023-02-15T03:43:19;15.13;;;8.82;;
22449;SDS011;11392;57.390;-2.468;2023-02-15T03:45:55;19.60;;;8.93;;
22449;SDS011;11392;57.390;-2.468;2023-02-15T03:48:32;13.10;;;8.55;;
22449;SDS011;11392;57.390;-2.468;2023-02-15T03:51:05;14.38;;;7.65;;
22449;SDS011;11392;57.390;-2.468;2023-02-15T03:53:56;11.85;;;7.72;;
22449;SDS011;11392;57.390;-2.468;2023-02-15T03:56:25;17.15;;;9.68;;
22449;SDS011;11392;57.390;-2.468;2023-02-15T03:58:52;17.50;;;7.40;;
22449;SDS011;11392;57.390;-2.468;2023-02-15T04:01:39;16.90;;;7.78;;
22449;SDS011;11392;57.390;-2.468;2023-02-15T04:04:37;14.32;;;7.93;;
22449;SDS011;11392;57.390;-2.468;2023-02-15T04:07:06;14.43;;;8.77;;
22449;SDS011;11392;57.390;-2.468;2023-02-15T04:09:38;14.40;;;8.65;;
22449;SDS011;11392;57.390;-2.468;2023-02-15T04:12:24;14.35;;;7.43;;
22449;SDS011;11392;57.390;-2.468;2023-02-15T04:14:51;13.05;;;7.22;;
22449;SDS011;11392;57.390;-2.468;2023-02-15T04:17:37;14.63;;;7.97;;
22449;SDS011;11392;57.390;-2.468;2023-02-15T04:20:04;13.13;;;7.38;;
22449;SDS011;11392;57.390;-2.468;2023-02-15T04:22:51;13.52;;;7.25;;
22449;SDS011;11392;57.390;-2.468;2023-02-15T04:25:37;15.20;;;7.38;;
22449;SDS011;11392;57.390;-2.468;2023-02-15T04:28:04;16.05;;;7.53;;
22449;SDS011;11392;57.390;-2.468;2023-02-15T04:30:33;12.82;;;7.60;;
22449;SDS011;11392;57.390;-2.468;2023-02-15T04:33:00;15.23;;;7.93;;
22449;SDS011;11392;57.390;-2.468;2023-02-15T04:35:27;16.70;;;7.35;;
22449;SDS011;11392;57.390;-2.468;2023-02-15T04:37:54;14.20;;;7.53;;
22449;SDS011;11392;57.390;-2.468;2023-02-15T04:40:22;15.98;;;7.75;;
22449;SDS011;11392;57.390;-2.468;2023-02-15T04:42:49;12.38;;;7.43;;
22449;SDS011;11392;57.390;-2.468;2023-02-15T04:45:16;15.30;;;8.50;;
22449;SDS011;11392;57.390;-2.468;2023-02-15T04:47:43;11.77;;;6.88;;
22449;SDS011;11392;57.390;-2.468;2023-02-15T04:50:10;12.07;;;7.78;;
22449;SDS011;11392;57.390;-2.468;2023-02-15T04:52:38;16.83;;;8.25;;
22449;SDS011;11392;57.390;-2.468;2023-02-15T04:55:05;12.48;;;7.25;;
22449;SDS011;11392;57.390;-2.468;2023-02-15T04:57:35;16.27;;;8.13;;
22449;SDS011;11392;57.390;-2.468;2023-02-15T05:00:02;13.70;;;6.97;;
22449;SDS011;11392;57.390;-2.468;2023-02-15T05:02:29;11.10;;;7.03;;
22449;SDS011;11392;57.390;-2.468;2023-02-15T05:04:56;14.10;;;6.97;;
22449;SDS011;11392;57.390;-2.468;2023-02-15T05:07:23;15.20;;;7.45;;
22449;SDS011;11392;57.390;-2.468;2023-02-15T05:09:50;13.45;;;7.32;;
22449;SDS011;11392;57.390;-2.468;2023-02-15T05:12:17;15.88;;;7.60;;
22449;SDS011;11392;57.390;-2.468;2023-02-15T05:14:44;13.52;;;7.03;;
22449;SDS011;11392;57.390;-2.468;2023-02-15T05:17:11;16.65;;;6.63;;
22449;SDS011;11392;57.390;-2.468;2023-02-15T05:19:38;12.35;;;7.00;;
22449;SDS011;11392;57.390;-2.468;2023-02-15T05:22:05;13.77;;;7.15;;
22449;SDS011;11392;57.390;-2.468;2023-02-15T05:24:32;10.10;;;6.63;;
22449;SDS011;11392;57.390;-2.468;2023-02-15T05:27:18;14.63;;;7.03;;
22449;SDS011;11392;57.390;-2.468;2023-02-15T05:30:03;12.10;;;6.90;;
22449;SDS011;11392;57.390;-2.468;2023-02-15T05:32:31;12.70;;;6.55;;
22449;SDS011;11392;57.390;-2.468;2023-02-15T05:34:58;13.32;;;6.30;;
22449;SDS011;11392;57.390;-2.468;2023-02-15T05:37:25;11.38;;;6.13;;
22449;SDS011;11392;57.390;-2.468;2023-02-15T05:39:52;10.38;;;5.88;;
22449;SDS011;11392;57.390;-2.468;2023-02-15T05:42:19;8.18;;;5.80;;
22449;SDS011;11392;57.390;-2.468;2023-02-15T05:44:46;14.80;;;6.50;;
22449;SDS011;11392;57.390;-2.468;2023-02-15T05:47:13;11.30;;;6.03;;
22449;SDS011;11392;57.390;-2.468;2023-02-15T05:49:40;8.60;;;5.78;;
22449;SDS011;11392;57.390;-2.468;2023-02-15T05:52:06;9.20;;;5.35;;
22449;SDS011;11392;57.390;-2.468;2023-02-15T05:54:34;13.30;;;6.75;;
22449;SDS011;11392;57.390;-2.468;2023-02-15T05:57:01;11.85;;;6.68;;
22449;SDS011;11392;57.390;-2.468;2023-02-15T05:59:28;12.10;;;7.05;;
22449;SDS011;11392;57.390;-2.468;2023-02-15T06:01:55;10.43;;;6.63;;
22449;SDS011;11392;57.390;-2.468;2023-02-15T06:04:22;14.57;;;7.90;;
22449;SDS011;11392;57.390;-2.468;2023-02-15T06:06:49;15.55;;;8.27;;
22449;SDS011;11392;57.390;-2.468;2023-02-15T06:09:16;12.30;;;8.65;;
22449;SDS011;11392;57.390;-2.468;2023-02-15T06:11:44;17.20;;;8.70;;
22449;SDS011;11392;57.390;-2.468;2023-02-15T06:14:16;15.65;;;8.52;;
22449;SDS011;11392;57.390;-2.468;2023-02-15T06:16:43;16.23;;;9.02;;
22449;SDS011;11392;57.390;-2.468;2023-02-15T06:19:10;16.10;;;8.70;;
22449;SDS011;11392;57.390;-2.468;2023-02-15T06:21:37;17.10;;;9.15;;
22449;SDS011;11392;57.390;-2.468;2023-02-15T06:24:04;16.85;;;8.25;;
22449;SDS011;11392;57.390;-2.468;2023-02-15T06:26:31;13.95;;;9.00;;
22449;SDS011;11392;57.390;-2.468;2023-02-15T06:28:59;15.93;;;9.50;;
22449;SDS011;11392;57.390;-2.468;2023-02-15T06:31:26;17.88;;;8.70;;
22449;SDS011;11392;57.390;-2.468;2023-02-15T06:33:53;19.25;;;8.63;;
22449;SDS011;11392;57.390;-2.468;2023-02-15T06:36:27;15.30;;;8.60;;
22449;SDS011;11392;57.390;-2.468;2023-02-15T06:38:55;15.32;;;9.13;;
22449;SDS011;11392;57.390;-2.468;2023-02-15T06:41:22;15.43;;;9.25;;
22449;SDS011;11392;57.390;-2.468;2023-02-15T06:43:50;16.02;;;8.95;;
22449;SDS011;11392;57.390;-2.468;2023-02-15T06:46:17;13.82;;;9.45;;
22449;SDS011;11392;57.390;-2.468;2023-02-15T06:48:44;17.15;;;8.73;;
22449;SDS011;11392;57.390;-2.468;2023-02-15T06:51:11;18.02;;;9.27;;
22449;SDS011;11392;57.390;-2.468;2023-02-15T06:53:38;16.38;;;8.75;;
22449;SDS011;11392;57.390;-2.468;2023-02-15T06:56:07;15.90;;;8.88;;
22449;SDS011;11392;57.390;-2.468;2023-02-15T06:58:35;18.92;;;8.82;;
22449;SDS011;11392;57.390;-2.468;2023-02-15T07:01:03;16.95;;;8.85;;
22449;SDS011;11392;57.390;-2.468;2023-02-15T07:03:31;17.13;;;9.52;;
22449;SDS011;11392;57.390;-2.468;2023-02-15T07:05:59;14.90;;;8.20;;
22449;SDS011;11392;57.390;-2.468;2023-02-15T07:08:29;15.85;;;8.55;;
22449;SDS011;11392;57.390;-2.468;2023-02-15T07:10:56;13.63;;;8.18;;
22449;SDS011;11392;57.390;-2.468;2023-02-15T07:13:42;16.73;;;8.95;;
22449;SDS011;11392;57.390;-2.468;2023-02-15T07:16:10;17.88;;;9.32;;
22449;SDS011;11392;57.390;-2.468;2023-02-15T07:18:38;19.73;;;9.40;;
22449;SDS011;11392;57.390;-2.468;2023-02-15T07:21:05;17.83;;;9.45;;
22449;SDS011;11392;57.390;-2.468;2023-02-15T07:23:38;22.23;;;10.55;;
22449;SDS011;11392;57.390;-2.468;2023-02-15T07:26:05;16.15;;;9.93;;
22449;SDS011;11392;57.390;-2.468;2023-02-15T07:28:33;18.27;;;8.75;;
22449;SDS011;11392;57.390;-2.468;2023-02-15T07:31:01;14.95;;;8.95;;
22449;SDS011;11392;57.390;-2.468;2023-02-15T07:33:32;23.58;;;9.27;;
22449;SDS011;11392;57.390;-2.468;2023-02-15T07:36:03;14.45;;;8.40;;
22449;SDS011;11392;57.390;-2.468;2023-02-15T07:38:32;13.27;;;9.13;;
22449;SDS011;11392;57.390;-2.468;2023-02-15T07:41:01;23.65;;;11.23;;
22449;SDS011;11392;57.390;-2.468;2023-02-15T07:43:34;15.77;;;9.75;;
22449;SDS011;11392;57.390;-2.468;2023-02-15T07:46:06;19.10;;;9.60;;
22449;SDS011;11392;57.390;-2.468;2023-02-15T07:48:35;19.35;;;10.02;;
22449;SDS011;11392;57.390;-2.468;2023-02-15T07:51:03;19.05;;;9.48;;
22449;SDS011;11392;57.390;-2.468;2023-02-15T07:53:34;16.38;;;10.40;;
22449;SDS011;11392;57.390;-2.468;2023-02-15T07:56:02;19.02;;;9.40;;
22449;SDS011;11392;57.390;-2.468;2023-02-15T07:58:32;15.45;;;10.13;;
22449;SDS011;11392;57.390;-2.468;2023-02-15T08:01:19;19.45;;;8.95;;
22449;SDS011;11392;57.390;-2.468;2023-02-15T08:03:53;17.48;;;9.88;;
22449;SDS011;11392;57.390;-2.468;2023-02-15T08:06:22;16.45;;;10.18;;
22449;SDS011;11392;57.390;-2.468;2023-02-15T08:08:50;15.95;;;8.77;;
22449;SDS011;11392;57.390;-2.468;2023-02-15T08:11:22;14.38;;;8.65;;
22449;SDS011;11392;57.390;-2.468;2023-02-15T08:14:00;10.52;;;7.47;;
22449;SDS011;11392;57.390;-2.468;2023-02-15T08:16:39;14.23;;;7.90;;
22449;SDS011;11392;57.390;-2.468;2023-02-15T08:19:17;10.73;;;7.63;;
22449;SDS011;11392;57.390;-2.468;2023-02-15T08:21:47;15.90;;;9.73;;
22449;SDS011;11392;57.390;-2.468;2023-02-15T08:24:16;13.15;;;8.32;;
22449;SDS011;11392;57.390;-2.468;2023-02-15T08:26:45;14.63;;;8.57;;
22449;SDS011;11392;57.390;-2.468;2023-02-15T08:29:14;13.20;;;7.43;;
22449;SDS011;11392;57.390;-2.468;2023-02-15T08:31:42;11.13;;;7.03;;
22449;SDS011;11392;57.390;-2.468;2023-02-15T08:34:11;14.10;;;8.02;;
22449;SDS011;11392;57.390;-2.468;2023-02-15T08:36:40;14.18;;;8.48;;
22449;SDS011;11392;57.390;-2.468;2023-02-15T08:39:07;15.57;;;8.38;;
22449;SDS011;11392;57.390;-2.468;2023-02-15T08:41:35;11.68;;;7.18;;
22449;SDS011;11392;57.390;-2.468;2023-02-15T08:44:04;12.07;;;7.53;;
22449;SDS011;11392;57.390;-2.468;2023-02-15T08:46:34;12.10;;;7.35;;
22449;SDS011;11392;57.390;-2.468;2023-02-15T08:49:03;16.65;;;8.38;;
22449;SDS011;11392;57.390;-2.468;2023-02-15T08:51:31;8.90;;;6.55;;
22449;SDS011;11392;57.390;-2.468;2023-02-15T08:54:00;13.75;;;8.63;;
22449;SDS011;11392;57.390;-2.468;2023-02-15T08:56:33;11.80;;;8.10;;
22449;SDS011;11392;57.390;-2.468;2023-02-15T08:59:02;9.82;;;6.45;;
22449;SDS011;11392;57.390;-2.468;2023-02-15T09:01:31;10.05;;;7.18;;
22449;SDS011;11392;57.390;-2.468;2023-02-15T09:04:01;16.40;;;8.93;;
22449;SDS011;11392;57.390;-2.468;2023-02-15T09:06:35;19.25;;;9.55;;
22449;SDS011;11392;57.390;-2.468;2023-02-15T09:09:03;14.40;;;8.15;;
22449;SDS011;11392;57.390;-2.468;2023-02-15T09:11:33;9.95;;;7.90;;
22449;SDS011;11392;57.390;-2.468;2023-02-15T09:14:10;13.82;;;7.95;;
22449;SDS011;11392;57.390;-2.468;2023-02-15T09:16:43;12.00;;;8.15;;
22449;SDS011;11392;57.390;-2.468;2023-02-15T09:19:15;13.90;;;7.80;;
22449;SDS011;11392;57.390;-2.468;2023-02-15T09:21:44;10.75;;;8.07;;
22449;SDS011;11392;57.390;-2.468;2023-02-15T09:24:13;13.00;;;8.10;;
22449;SDS011;11392;57.390;-2.468;2023-02-15T09:26:42;15.07;;;8.25;;
22449;SDS011;11392;57.390;-2.468;2023-02-15T09:29:12;14.15;;;8.45;;
22449;SDS011;11392;57.390;-2.468;2023-02-15T09:31:41;13.18;;;8.55;;
22449;SDS011;11392;57.390;-2.468;2023-02-15T09:34:14;16.30;;;9.18;;
22449;SDS011;11392;57.390;-2.468;2023-02-15T09:36:43;19.55;;;9.63;;
22449;SDS011;11392;57.390;-2.468;2023-02-15T09:39:12;14.20;;;8.45;;
22449;SDS011;11392;57.390;-2.468;2023-02-15T09:44:38;12.85;;;7.63;;
22449;SDS011;11392;57.390;-2.468;2023-02-15T09:50:20;16.00;;;8.20;;
22449;SDS011;11392;57.390;-2.468;2023-02-15T10:07:22;13.15;;;8.00;;
22449;SDS011;11392;57.390;-2.468;2023-02-15T10:23:42;10.10;;;7.25;;
22449;SDS011;11392;57.390;-2.468;2023-02-15T10:26:20;11.35;;;7.45;;
22449;SDS011;11392;57.390;-2.468;2023-02-15T10:36:51;11.57;;;7.85;;
22449;SDS011;11392;57.390;-2.468;2023-02-15T11:08:23;9.82;;;6.50;;
22449;SDS011;11392;57.390;-2.468;2023-02-15T11:10:53;6.40;;;5.22;;
22449;SDS011;11392;57.390;-2.468;2023-02-15T11:13:27;5.60;;;4.30;;
22449;SDS011;11392;57.390;-2.468;2023-02-15T11:16:08;6.10;;;4.40;;
22449;SDS011;11392;57.390;-2.468;2023-02-15T11:18:48;5.60;;;4.10;;
22449;SDS011;11392;57.390;-2.468;2023-02-15T11:21:25;5.60;;;4.18;;
22449;SDS011;11392;57.390;-2.468;2023-02-15T11:24:09;5.88;;;4.20;;
22449;SDS011;11392;57.390;-2.468;2023-02-15T11:26:42;4.70;;;4.07;;
22449;SDS011;11392;57.390;-2.468;2023-02-15T11:29:12;4.57;;;3.95;;
22449;SDS011;11392;57.390;-2.468;2023-02-15T11:31:44;4.18;;;3.58;;
22449;SDS011;11392;57.390;-2.468;2023-02-15T11:34:35;5.35;;;4.38;;
22449;SDS011;11392;57.390;-2.468;2023-02-15T11:37:07;5.40;;;4.20;;
22449;SDS011;11392;57.390;-2.468;2023-02-15T11:39:38;4.63;;;3.78;;
22449;SDS011;11392;57.390;-2.468;2023-02-15T11:42:09;5.13;;;4.20;;
22449;SDS011;11392;57.390;-2.468;2023-02-15T11:44:59;6.47;;;4.30;;
22449;SDS011;11392;57.390;-2.468;2023-02-15T11:47:36;7.50;;;4.97;;
22449;SDS011;11392;57.390;-2.468;2023-02-15T11:50:03;6.03;;;4.30;;
22449;SDS011;11392;57.390;-2.468;2023-02-15T11:52:31;5.85;;;5.05;;
22449;SDS011;11392;57.390;-2.468;2023-02-15T11:54:59;6.95;;;5.22;;
22449;SDS011;11392;57.390;-2.468;2023-02-15T11:57:33;5.85;;;5.20;;
22449;SDS011;11392;57.390;-2.468;2023-02-15T12:02:42;7.90;;;4.97;;
22449;SDS011;11392;57.390;-2.468;2023-02-15T12:05:14;6.53;;;4.93;;
22449;SDS011;11392;57.390;-2.468;2023-02-15T12:07:52;6.03;;;4.80;;
22449;SDS011;11392;57.390;-2.468;2023-02-15T12:10:38;5.85;;;4.43;;
22449;SDS011;11392;57.390;-2.468;2023-02-15T12:13:15;7.18;;;5.28;;
22449;SDS011;11392;57.390;-2.468;2023-02-15T12:15:54;6.82;;;5.22;;
22449;SDS011;11392;57.390;-2.468;2023-02-15T12:21:14;5.15;;;4.65;;
22449;SDS011;11392;57.390;-2.468;2023-02-15T12:23:52;5.75;;;4.75;;
22449;SDS011;11392;57.390;-2.468;2023-02-15T12:26:26;5.57;;;4.38;;
22449;SDS011;11392;57.390;-2.468;2023-02-15T12:28:57;5.65;;;4.63;;
22449;SDS011;11392;57.390;-2.468;2023-02-15T12:31:31;6.07;;;4.50;;
22449;SDS011;11392;57.390;-2.468;2023-02-15T12:34:12;5.15;;;4.18;;
22449;SDS011;11392;57.390;-2.468;2023-02-15T12:36:49;6.05;;;4.60;;
22449;SDS011;11392;57.390;-2.468;2023-02-15T12:39:27;5.20;;;4.35;;
22449;SDS011;11392;57.390;-2.468;2023-02-15T12:42:00;5.90;;;4.88;;
22449;SDS011;11392;57.390;-2.468;2023-02-15T12:44:33;5.28;;;4.68;;
22449;SDS011;11392;57.390;-2.468;2023-02-15T12:49:31;5.80;;;4.63;;
22449;SDS011;11392;57.390;-2.468;2023-02-15T12:52:04;6.05;;;4.18;;
22449;SDS011;11392;57.390;-2.468;2023-02-15T12:54:48;4.93;;;4.43;;
22449;SDS011;11392;57.390;-2.468;2023-02-15T12:59:58;4.38;;;3.35;;
22449;SDS011;11392;57.390;-2.468;2023-02-15T13:02:37;4.97;;;3.47;;
22449;SDS011;11392;57.390;-2.468;2023-02-15T13:05:18;3.90;;;3.10;;
22449;SDS011;11392;57.390;-2.468;2023-02-15T13:07:59;3.35;;;2.40;;
22449;SDS011;11392;57.390;-2.468;2023-02-15T13:10:40;4.43;;;3.05;;
22449;SDS011;11392;57.390;-2.468;2023-02-15T13:13:21;3.17;;;2.88;;
22449;SDS011;11392;57.390;-2.468;2023-02-15T13:15:52;2.95;;;1.90;;
22449;SDS011;11392;57.390;-2.468;2023-02-15T13:18:43;2.90;;;2.22;;
22449;SDS011;11392;57.390;-2.468;2023-02-15T13:21:13;2.25;;;1.67;;
22449;SDS011;11392;57.390;-2.468;2023-02-15T13:23:49;2.17;;;1.83;;
22449;SDS011;11392;57.390;-2.468;2023-02-15T13:26:19;2.65;;;1.92;;
22449;SDS011;11392;57.390;-2.468;2023-02-15T13:28:49;2.13;;;1.90;;
22449;SDS011;11392;57.390;-2.468;2023-02-15T13:31:25;2.72;;;1.98;;
22449;SDS011;11392;57.390;-2.468;2023-02-15T13:44:50;1.20;;;1.08;;
22449;SDS011;11392;57.390;-2.468;2023-02-15T13:47:27;1.08;;;0.98;;
22449;SDS011;11392;57.390;-2.468;2023-02-15T13:52:42;0.57;;;0.57;;
22449;SDS011;11392;57.390;-2.468;2023-02-15T13:55:27;1.08;;;0.90;;
22449;SDS011;11392;57.390;-2.468;2023-02-15T14:03:12;0.60;;;0.60;;
22449;SDS011;11392;57.390;-2.468;2023-02-15T14:06:10;0.40;;;0.40;;
22449;SDS011;11392;57.390;-2.468;2023-02-15T14:14:15;0.25;;;0.25;;
22449;SDS011;11392;57.390;-2.468;2023-02-15T14:25:15;1.30;;;0.60;;
22449;SDS011;11392;57.390;-2.468;2023-02-15T14:27:55;0.98;;;0.80;;
22449;SDS011;11392;57.390;-2.468;2023-02-15T14:30:48;0.60;;;0.60;;
22449;SDS011;11392;57.390;-2.468;2023-02-15T14:36:00;1.38;;;1.00;;
22449;SDS011;11392;57.390;-2.468;2023-02-15T14:38:48;1.10;;;1.00;;
22449;SDS011;11392;57.390;-2.468;2023-02-15T14:41:58;0.95;;;0.88;;
22449;SDS011;11392;57.390;-2.468;2023-02-15T14:44:36;1.50;;;0.60;;
22449;SDS011;11392;57.390;-2.468;2023-02-15T14:47:37;0.80;;;0.65;;
22449;SDS011;11392;57.390;-2.468;2023-02-15T14:56:05;0.50;;;0.50;;
22449;SDS011;11392;57.390;-2.468;2023-02-15T15:01:16;1.13;;;0.40;;
22449;SDS011;11392;57.390;-2.468;2023-02-15T15:03:53;0.50;;;0.32;;
22449;SDS011;11392;57.390;-2.468;2023-02-15T15:06:28;0.55;;;0.40;;
22449;SDS011;11392;57.390;-2.468;2023-02-15T15:09:40;0.77;;;0.32;;
22449;SDS011;11392;57.390;-2.468;2023-02-15T15:11:48;0.80;;;0.60;;
22449;SDS011;11392;57.390;-2.468;2023-02-15T15:20:14;1.17;;;1.00;;
22449;SDS011;11392;57.390;-2.468;2023-02-15T15:23:33;1.67;;;0.80;;
22449;SDS011;11392;57.390;-2.468;2023-02-15T15:26:27;0.70;;;0.70;;
22449;SDS011;11392;57.390;-2.468;2023-02-15T15:29:00;0.70;;;0.57;;
22449;SDS011;11392;57.390;-2.468;2023-02-15T15:37:26;1.15;;;0.35;;
22449;SDS011;11392;57.390;-2.468;2023-02-15T15:42:50;0.32;;;0.20;;
22449;SDS011;11392;57.390;-2.468;2023-02-15T15:50:47;1.45;;;0.40;;
22449;SDS011;11392;57.390;-2.468;2023-02-15T15:53:22;0.40;;;0.30;;
22449;SDS011;11392;57.390;-2.468;2023-02-15T15:55:52;1.17;;;0.55;;
22449;SDS011;11392;57.390;-2.468;2023-02-15T15:58:26;1.23;;;0.50;;
22449;SDS011;11392;57.390;-2.468;2023-02-15T16:00:59;1.10;;;0.47;;
22449;SDS011;11392;57.390;-2.468;2023-02-15T16:03:30;1.35;;;0.40;;
22449;SDS011;11392;57.390;-2.468;2023-02-15T16:05:57;0.68;;;0.40;;
22449;SDS011;11392;57.390;-2.468;2023-02-15T16:08:35;0.57;;;0.30;;
22449;SDS011;11392;57.390;-2.468;2023-02-15T16:11:13;0.70;;;0.30;;
22449;SDS011;11392;57.390;-2.468;2023-02-15T16:13:50;1.45;;;0.50;;
22449;SDS011;11392;57.390;-2.468;2023-02-15T16:16:22;0.70;;;0.30;;
22449;SDS011;11392;57.390;-2.468;2023-02-15T16:18:56;0.80;;;0.30;;
22449;SDS011;11392;57.390;-2.468;2023-02-15T16:21:30;1.17;;;0.50;;
22449;SDS011;11392;57.390;-2.468;2023-02-15T16:29:31;1.75;;;0.63;;
22449;SDS011;11392;57.390;-2.468;2023-02-15T16:37:27;0.90;;;0.43;;
22449;SDS011;11392;57.390;-2.468;2023-02-15T16:39:59;0.47;;;0.40;;
22449;SDS011;11392;57.390;-2.468;2023-02-15T16:42:26;0.52;;;0.43;;
22449;SDS011;11392;57.390;-2.468;2023-02-15T16:45:05;1.00;;;0.57;;
22449;SDS011;11392;57.390;-2.468;2023-02-15T16:47:43;1.58;;;0.45;;
22449;SDS011;11392;57.390;-2.468;2023-02-15T16:50:20;0.77;;;0.50;;
22449;SDS011;11392;57.390;-2.468;2023-02-15T16:52:58;2.65;;;0.60;;
22449;SDS011;11392;57.390;-2.468;2023-02-15T16:55:27;1.98;;;0.47;;
22449;SDS011;11392;57.390;-2.468;2023-02-15T16:57:59;1.55;;;0.57;;
22449;SDS011;11392;57.390;-2.468;2023-02-15T17:00:31;0.95;;;0.40;;
22449;SDS011;11392;57.390;-2.468;2023-02-15T17:03:06;1.85;;;0.60;;
22449;SDS011;11392;57.390;-2.468;2023-02-15T17:08:27;2.53;;;0.60;;
22449;SDS011;11392;57.390;-2.468;2023-02-15T17:14:27;1.58;;;0.70;;
22449;SDS011;11392;57.390;-2.468;2023-02-15T17:16:33;2.40;;;0.60;;
22449;SDS011;11392;57.390;-2.468;2023-02-15T17:19:09;3.58;;;0.70;;
22449;SDS011;11392;57.390;-2.468;2023-02-15T17:21:45;1.08;;;0.50;;
22449;SDS011;11392;57.390;-2.468;2023-02-15T17:24:40;0.70;;;0.63;;
22449;SDS011;11392;57.390;-2.468;2023-02-15T17:27:14;3.47;;;0.90;;
22449;SDS011;11392;57.390;-2.468;2023-02-15T17:29:46;1.98;;;0.90;;
22449;SDS011;11392;57.390;-2.468;2023-02-15T17:32:19;1.00;;;0.90;;
22449;SDS011;11392;57.390;-2.468;2023-02-15T17:42:51;3.67;;;1.40;;
22449;SDS011;11392;57.390;-2.468;2023-02-15T17:45:19;2.53;;;1.20;;
22449;SDS011;11392;57.390;-2.468;2023-02-15T17:47:47;2.65;;;1.63;;
22449;SDS011;11392;57.390;-2.468;2023-02-15T17:50:20;1.45;;;1.10;;
22449;SDS011;11392;57.390;-2.468;2023-02-15T17:52:49;4.13;;;1.38;;
22449;SDS011;11392;57.390;-2.468;2023-02-15T17:55:18;2.70;;;1.40;;
22449;SDS011;11392;57.390;-2.468;2023-02-15T17:58:07;2.00;;;1.20;;
22449;SDS011;11392;57.390;-2.468;2023-02-15T18:00:38;3.50;;;1.80;;
22449;SDS011;11392;57.390;-2.468;2023-02-15T18:03:28;3.67;;;1.40;;
22449;SDS011;11392;57.390;-2.468;2023-02-15T18:06:26;1.75;;;1.05;;
22449;SDS011;11392;57.390;-2.468;2023-02-15T18:09:15;2.97;;;1.55;;
22449;SDS011;11392;57.390;-2.468;2023-02-15T18:14:50;1.20;;;1.10;;
22449;SDS011;11392;57.390;-2.468;2023-02-15T18:17:23;1.58;;;1.23;;
22449;SDS011;11392;57.390;-2.468;2023-02-15T18:19:54;3.30;;;1.40;;
22449;SDS011;11392;57.390;-2.468;2023-02-15T18:22:21;2.75;;;1.40;;
22449;SDS011;11392;57.390;-2.468;2023-02-15T18:24:48;1.98;;;1.23;;
22449;SDS011;11392;57.390;-2.468;2023-02-15T18:27:15;1.95;;;1.50;;
22449;SDS011;11392;57.390;-2.468;2023-02-15T18:29:42;2.55;;;1.48;;